Time;durP1;ratioP1;P1;durP2;ratioP2;P2;SDS_P1;SDS_P2;PMS_P1;PMS_P2;Temp;Humidity;BMP_temperature;BMP_pressure;BME280_temperature;BME280_humidity;BME280_pressure;Samples;Min_cycle;Max_cycle;Signal;HPM_P1;HPM_P2
2022/06/29 00:05:03;;;;;;;20.00;18.00;;;;;;;18.44;87.07;98948.64;219468;1279;25310;-70
2022/06/29 00:15:22;;;;;;;21.80;19.60;;;;;;;18.42;87.46;98926.70;218991;1277;439356;-70
2022/06/29 00:20:28;;;;;;;24.20;19.60;;;;;;;18.40;87.49;98921.21;219898;1278;25300;-70
2022/06/29 00:25:40;;;;;;;22.20;19.50;;;;;;;18.38;87.50;98921.98;219418;1278;22700;-71
2022/06/29 00:30:56;;;;;;;21.20;19.10;;;;;;;18.37;87.81;98929.17;219289;1277;24227;-70
2022/06/29 00:36:08;;;;;;;20.80;18.60;;;;;;;18.38;88.10;98925.66;219379;1278;25325;-70
2022/06/29 00:41:14;;;;;;;21.10;18.50;;;;;;;18.40;88.01;98913.94;219263;1278;25339;-69
2022/06/29 00:46:16;;;;;;;22.00;19.20;;;;;;;18.38;87.96;98907.21;219376;1277;24232;-71
2022/06/29 00:51:29;;;;;;;24.00;21.10;;;;;;;18.35;87.77;98909.36;219900;1278;25416;-70
2022/06/29 00:56:34;;;;;;;28.90;22.20;;;;;;;18.32;87.78;98902.82;219340;1278;22665;-69
2022/06/29 01:01:47;;;;;;;25.30;21.40;;;;;;;18.29;87.87;98872.67;219960;1276;22539;-70
2022/06/29 01:07:09;;;;;;;26.20;20.20;;;;;;;18.26;87.93;98879.00;219346;1277;22571;-70
2022/06/29 01:12:35;;;;;;;29.30;21.70;;;;;;;18.24;88.15;98883.69;219327;1278;22539;-70
2022/06/29 01:18:09;;;;;;;33.40;20.40;;;;;;;18.26;88.46;98885.59;219434;1277;22574;-70
2022/06/29 01:23:45;;;;;;;22.10;17.60;;;;;;;18.33;88.80;98878.23;219503;1278;24802;-70
2022/06/29 01:29:03;;;;;;;23.00;19.20;;;;;;;18.40;88.96;98874.64;219941;1277;22596;-71
2022/06/29 01:34:12;;;;;;;22.40;18.00;;;;;;;18.42;88.64;98873.25;219999;1278;24256;-70
2022/06/29 01:39:17;;;;;;;18.90;15.50;;;;;;;18.43;88.61;98868.17;220145;1277;22560;-69
2022/06/29 01:44:21;;;;;;;20.30;17.50;;;;;;;18.49;89.26;98865.41;219475;1278;22525;-70
2022/06/29 01:49:46;;;;;;;21.30;17.60;;;;;;;18.53;89.09;98862.36;219638;1277;24336;-69
2022/06/29 01:55:15;;;;;;;19.30;17.20;;;;;;;18.55;88.95;98852.80;219472;1276;22606;-70
2022/06/29 02:00:18;;;;;;;19.50;17.40;;;;;;;18.54;88.55;98850.90;219690;1278;22561;-70
2022/06/29 02:05:20;;;;;;;20.90;16.20;;;;;;;18.49;88.42;98856.52;219648;1278;22536;-69
2022/06/29 02:10:23;;;;;;;19.60;17.50;;;;;;;18.44;88.43;98854.55;219423;1278;22935;-70
2022/06/29 02:15:28;;;;;;;22.10;18.40;;;;;;;18.33;88.12;98858.14;219652;1277;26220;-70
2022/06/29 02:20:43;;;;;;;19.50;17.40;;;;;;;18.22;88.33;98850.30;219457;1277;24293;-70
2022/06/29 02:26:06;;;;;;;19.60;17.50;;;;;;;18.14;88.65;98853.90;219295;1276;22565;-70
2022/06/29 02:36:57;;;;;;;20.50;17.00;;;;;;;18.02;88.97;98840.88;219403;1276;22641;-71
2022/06/29 02:47:43;;;;;;;28.40;22.90;;;;;;;17.94;88.80;98816.47;219367;1276;22695;-70
2022/06/29 02:52:45;;;;;;;37.20;28.30;;;;;;;17.92;89.18;98798.82;219324;1276;22730;-70
2022/06/29 02:57:48;;;;;;;51.60;38.00;;;;;;;17.92;89.59;98795.27;220146;1277;22544;-71
2022/06/29 03:02:54;;;;;;;59.60;43.90;;;;;;;17.94;89.70;98795.23;220087;1276;22615;-70
2022/06/29 03:07:56;;;;;;;66.00;44.50;;;;;;;17.98;89.85;98784.13;220112;1276;22584;-70
2022/06/29 03:12:59;;;;;;;67.60;46.00;;;;;;;18.04;90.11;98790.92;220066;1278;22544;-70
2022/06/29 03:18:01;;;;;;;68.40;46.70;;;;;;;18.13;90.09;98776.71;219353;1276;22656;-70
2022/06/29 03:23:03;;;;;;;68.80;47.40;;;;;;;18.26;90.48;98767.67;219570;1276;25321;-70
2022/06/29 03:28:06;;;;;;;56.80;42.30;;;;;;;18.44;90.62;98769.92;219534;1276;22714;-69
2022/06/29 03:33:08;;;;;;;56.00;41.40;;;;;;;18.66;90.49;98776.88;219212;1276;25372;-70
2022/06/29 03:38:11;;;;;;;49.50;38.00;;;;;;;18.87;90.08;98781.21;219455;1277;22514;-71
2022/06/29 03:43:22;;;;;;;76.40;61.00;;;;;;;19.09;89.82;98785.18;220192;1277;22505;-70
2022/06/29 03:48:28;;;;;;;71.20;59.80;;;;;;;19.32;89.58;98797.23;220050;1277;22547;-70
2022/06/29 03:53:30;;;;;;;70.20;56.20;;;;;;;19.53;88.81;98799.96;220140;1277;22550;-69
2022/06/29 03:58:35;;;;;;;63.80;46.20;;;;;;;19.75;88.55;98803.27;219627;1276;22544;-70
2022/06/29 04:03:44;;;;;;;57.00;43.50;;;;;;;20.00;87.82;98794.45;219635;1277;22545;-71
2022/06/29 04:08:46;;;;;;;60.70;44.40;;;;;;;20.27;87.45;98788.55;219615;1276;22583;-70
2022/06/29 04:13:49;;;;;;;53.60;40.00;;;;;;;20.51;86.71;98794.70;219487;1276;25460;-70
2022/06/29 04:18:52;;;;;;;49.00;38.40;;;;;;;20.61;86.23;98797.26;219879;1276;25320;-71
2022/06/29 04:23:54;;;;;;;47.70;35.80;;;;;;;20.65;85.59;98795.73;219697;1276;22549;-69
2022/06/29 04:28:58;;;;;;;51.50;40.50;;;;;;;20.67;85.27;98790.57;219665;1276;25365;-69
2022/06/29 04:34:03;;;;;;;55.90;42.90;;;;;;;20.67;85.05;98787.38;219714;1276;26020;-70
2022/06/29 04:39:06;;;;;;;48.00;36.20;;;;;;;20.66;84.79;98776.60;219614;1276;22586;-70
2022/06/29 04:44:08;;;;;;;32.30;27.40;;;;;;;20.66;84.78;98776.37;219756;1276;24146;-70
2022/06/29 04:49:11;;;;;;;23.80;21.20;;;;;;;20.67;84.69;98780.77;219644;1276;24698;-69
2022/06/29 04:54:13;;;;;;;22.70;20.30;;;;;;;20.71;84.51;98778.05;219569;1276;22551;-69
2022/06/29 04:59:29;;;;;;;22.70;20.30;;;;;;;20.75;84.49;98776.74;219412;1276;25276;-70
2022/06/29 05:04:45;;;;;;;21.50;19.20;;;;;;;20.83;84.42;98777.48;220087;1277;25379;-69
2022/06/29 05:09:47;;;;;;;23.00;20.60;;;;;;;20.88;84.08;98770.79;219541;1276;26582;-71
2022/06/29 05:14:54;;;;;;;24.10;21.60;;;;;;;20.92;83.84;98768.23;219637;1276;22590;-71
2022/06/29 05:19:59;;;;;;;26.30;20.80;;;;;;;21.03;83.83;98769.22;219546;1276;25331;-70
2022/06/29 05:25:05;;;;;;;26.10;22.30;;;;;;;21.20;83.73;98772.90;219566;1277;24389;-70
2022/06/29 05:30:08;;;;;;;28.30;23.80;;;;;;;21.35;83.33;98772.18;219521;1276;22630;-71
2022/06/29 05:35:13;;;;;;;28.10;24.00;;;;;;;21.51;82.88;98783.78;219672;1276;25261;-69
2022/06/29 05:40:19;;;;;;;26.40;22.90;;;;;;;21.60;82.22;98781.95;219681;1276;22630;-70
2022/06/29 05:45:32;;;;;;;26.80;23.40;;;;;;;21.73;82.05;98781.22;219277;1276;24505;-69
2022/06/29 05:50:37;;;;;;;27.30;21.90;;;;;;;21.89;81.74;98789.05;219341;1275;25542;-69
2022/06/29 05:55:40;;;;;;;27.90;22.90;;;;;;;22.00;81.03;98795.45;219249;1277;22541;-69
2022/06/29 06:00:42;;;;;;;24.40;21.90;;;;;;;22.13;80.85;98789.98;219028;1276;22554;-70
2022/06/29 06:05:45;;;;;;;25.40;22.50;;;;;;;22.32;80.64;98784.29;218991;1275;22632;-70
2022/06/29 06:10:48;;;;;;;28.80;20.90;;;;;;;22.53;80.39;98788.91;218993;1275;22651;-69
2022/06/29 06:15:50;;;;;;;23.70;21.10;;;;;;;22.71;79.70;98791.33;218988;1277;22956;-69
2022/06/29 06:21:09;;;;;;;28.30;23.60;;;;;;;22.92;79.53;98794.88;219186;1276;24390;-70
2022/06/29 06:26:12;;;;;;;24.30;21.70;;;;;;;23.15;79.03;98797.67;219300;1274;24246;-69
2022/06/29 06:31:15;;;;;;;24.70;20.80;;;;;;;23.32;78.10;98795.69;219032;1275;24251;-70
2022/06/29 06:36:18;;;;;;;25.50;22.00;;;;;;;23.47;77.52;98803.04;219159;1276;22562;-70
2022/06/29 06:41:25;;;;;;;22.80;20.50;;;;;;;23.57;76.89;98807.30;220580;1275;22614;-71
2022/06/29 06:46:28;;;;;;;23.20;20.80;;;;;;;23.73;76.70;98798.77;220673;1274;24301;-71
2022/06/29 06:51:31;;;;;;;22.40;20.10;;;;;;;23.97;76.32;98795.89;220543;1276;22586;-70
2022/06/29 06:56:33;;;;;;;21.10;18.90;;;;;;;24.17;75.06;98788.48;218836;1274;22578;-69
2022/06/29 07:01:36;;;;;;;21.90;19.80;;;;;;;24.35;74.81;98788.60;219065;1275;22548;-70
2022/06/29 07:06:38;;;;;;;22.10;19.90;;;;;;;24.56;74.05;98782.95;219072;1275;23828;-69
2022/06/29 07:11:41;;;;;;;22.40;20.10;;;;;;;24.76;73.49;98782.21;219267;1274;22571;-70
2022/06/29 07:16:53;;;;;;;21.10;19.10;;;;;;;24.97;72.96;98783.88;220592;1275;22810;-71
2022/06/29 07:22:04;;;;;;;21.80;19.70;;;;;;;25.10;72.16;98773.20;219588;1275;22670;-69
2022/06/29 07:27:06;;;;;;;20.30;18.20;;;;;;;25.17;71.19;98764.39;218691;1276;26413;-69
2022/06/29 07:32:10;;;;;;;19.50;17.70;;;;;;;25.26;70.59;98751.41;219185;1276;24060;-72
2022/06/29 07:37:13;;;;;;;20.10;18.30;;;;;;;25.36;70.06;98750.05;220668;1276;22576;-69
2022/06/29 07:42:18;;;;;;;20.50;18.40;;;;;;;25.52;70.07;98749.29;219316;1276;22541;-70
2022/06/29 07:47:20;;;;;;;19.00;17.20;;;;;;;25.71;69.55;98755.50;219273;1276;22694;-70
2022/06/29 07:52:23;;;;;;;19.40;17.50;;;;;;;25.93;69.47;98753.71;220763;1275;22653;-70
2022/06/29 07:57:25;;;;;;;18.80;17.00;;;;;;;26.19;68.60;98752.77;220679;1274;22545;-70
2022/06/29 08:02:27;;;;;;;18.00;16.30;;;;;;;26.34;67.79;98749.93;219364;1274;22584;-69
2022/06/29 08:07:43;;;;;;;16.90;15.40;;;;;;;26.43;66.67;98750.77;219282;1274;25965;-69
2022/06/29 08:13:00;;;;;;;15.70;14.30;;;;;;;26.59;66.35;98750.89;219177;1275;22541;-69
2022/06/29 08:18:15;;;;;;;18.10;16.40;;;;;;;26.72;65.39;98752.83;219438;1276;22580;-69
2022/06/29 08:23:31;;;;;;;15.70;14.30;;;;;;;26.82;65.08;98743.85;219167;1274;25411;-70
2022/06/29 08:28:33;;;;;;;17.20;15.50;;;;;;;26.90;64.28;98739.11;220691;1275;22567;-69
2022/06/29 08:33:36;;;;;;;17.60;16.00;;;;;;;26.98;64.12;98730.27;219099;1275;24301;-70
2022/06/29 08:38:39;;;;;;;16.80;15.20;;;;;;;27.04;63.80;98730.71;219308;1274;23835;-70
2022/06/29 08:43:42;;;;;;;17.30;15.70;;;;;;;27.17;63.18;98732.38;220872;1274;23142;-69
2022/06/29 08:48:45;;;;;;;18.10;16.30;;;;;;;27.20;62.60;98730.39;220785;1276;22526;-70
2022/06/29 08:53:50;;;;;;;17.00;15.40;;;;;;;27.35;62.91;98726.46;220739;1275;22607;-70
2022/06/29 08:58:52;;;;;;;17.40;15.80;;;;;;;27.55;62.02;98726.17;218935;1276;25267;-71
2022/06/29 09:04:07;;;;;;;16.20;14.80;;;;;;;27.71;61.96;98719.70;220617;1275;22568;-70
2022/06/29 09:09:24;;;;;;;16.60;15.00;;;;;;;27.97;61.31;98712.57;220718;1275;23380;-70
2022/06/29 09:14:28;;;;;;;16.10;14.70;;;;;;;28.04;60.98;98711.11;220710;1275;22573;-68
2022/06/29 09:19:44;;;;;;;17.10;15.60;;;;;;;28.10;60.59;98708.29;219057;1275;22798;-70
2022/06/29 09:24:48;;;;;;;17.10;15.40;;;;;;;28.17;60.21;98708.94;219116;1275;22540;-70
2022/06/29 09:30:25;;;;;;;14.30;13.10;;;;;;;28.40;60.39;98695.55;219076;1274;24364;-70
2022/06/29 09:35:28;;;;;;;16.10;14.70;;;;;;;28.51;59.55;98707.30;220973;1275;22590;-70
2022/06/29 09:40:31;;;;;;;15.90;14.40;;;;;;;28.66;59.51;98705.50;219132;1275;22712;-69
2022/06/29 09:45:34;;;;;;;16.00;14.60;;;;;;;28.84;59.16;98702.44;219243;1275;22586;-69
2022/06/29 09:50:37;;;;;;;16.50;15.00;;;;;;;29.01;58.99;98703.16;219181;1276;22601;-69
2022/06/29 09:55:39;;;;;;;15.00;13.60;;;;;;;29.28;58.69;98698.95;219186;1276;23798;-70
2022/06/29 10:06:08;;;;;;;16.50;14.90;;;;;;;29.57;56.84;98691.48;218971;1276;22568;-69
2022/06/29 10:16:57;;;;;;;14.50;13.30;;;;;;;29.74;55.72;98696.09;218948;1276;25509;-68
2022/06/29 10:22:01;;;;;;;14.80;13.50;;;;;;;29.81;54.63;98697.23;219840;1275;22571;-69
2022/06/29 10:27:07;;;;;;;14.10;12.80;;;;;;;29.97;55.21;98697.70;220570;1276;25373;-69
2022/06/29 10:32:14;;;;;;;17.00;15.50;;;;;;;30.25;54.57;98694.05;219023;1276;25236;-69
2022/06/29 10:37:17;;;;;;;14.80;13.40;;;;;;;30.44;53.89;98698.17;219563;1276;25448;-69
2022/06/29 10:47:54;;;;;;;15.40;14.10;;;;;;;30.34;52.93;98681.31;220603;1276;23070;-69
2022/06/29 10:52:58;;;;;;;15.90;14.40;;;;;;;30.24;53.21;98671.55;219218;1276;22541;-70
2022/06/29 10:58:02;;;;;;;13.50;12.40;;;;;;;30.34;53.16;98670.25;218951;1276;22637;-69
2022/06/29 11:03:10;;;;;;;15.30;14.00;;;;;;;30.36;52.16;98661.94;219407;1275;22695;-69
2022/06/29 11:13:49;;;;;;;15.40;14.10;;;;;;;30.58;51.64;98661.27;219557;1275;24386;-70
2022/06/29 11:18:56;;;;;;;16.70;15.20;;;;;;;30.72;51.50;98652.36;219570;1276;25265;-69
2022/06/29 11:24:04;;;;;;;16.40;14.80;;;;;;;30.88;51.45;98654.80;219209;1274;22562;-70
2022/06/29 11:29:06;;;;;;;15.60;14.20;;;;;;;30.97;50.95;98655.39;219531;1276;22639;-70
2022/06/29 11:34:08;;;;;;;16.00;14.50;;;;;;;31.16;51.15;98651.02;219138;1276;22587;-70
2022/06/29 11:39:15;;;;;;;16.00;14.40;;;;;;;31.41;50.62;98650.98;219209;1276;22562;-70
2022/06/29 11:44:31;;;;;;;16.30;14.80;;;;;;;31.65;50.05;98653.00;219079;1276;24357;-70
2022/06/29 11:49:39;;;;;;;16.20;14.80;;;;;;;31.78;49.51;98652.77;219710;1276;22600;-71
2022/06/29 11:54:48;;;;;;;16.10;14.60;;;;;;;31.81;49.36;98648.48;220488;1276;22565;-71
2022/06/29 11:59:52;;;;;;;16.80;15.20;;;;;;;31.89;48.84;98643.30;220637;1276;22635;-70
2022/06/29 12:04:59;;;;;;;16.00;14.50;;;;;;;31.94;48.71;98641.04;220665;1276;22567;-69
2022/06/29 12:10:01;;;;;;;16.20;14.60;;;;;;;31.89;47.83;98641.48;220409;1276;23098;-71
2022/06/29 12:15:04;;;;;;;15.50;14.10;;;;;;;31.66;47.61;98635.81;220210;1275;230946;-70
2022/06/29 12:20:11;;;;;;;15.30;14.00;;;;;;;31.79;48.31;98628.84;220544;1275;24493;-71
2022/06/29 12:25:33;;;;;;;14.90;13.70;;;;;;;31.97;47.73;98628.52;220711;1276;22565;-70
2022/06/29 12:30:36;;;;;;;15.80;14.40;;;;;;;32.11;47.67;98624.42;220579;1275;24242;-71
2022/06/29 12:35:38;;;;;;;16.90;15.20;;;;;;;32.31;47.56;98617.55;220771;1276;22655;-70
2022/06/29 12:40:41;;;;;;;15.80;14.30;;;;;;;32.43;46.49;98611.58;220758;1274;24280;-71
2022/06/29 12:45:45;;;;;;;16.00;14.50;;;;;;;32.32;46.36;98601.87;220521;1276;25402;-71
2022/06/29 12:50:49;;;;;;;16.30;14.80;;;;;;;32.39;46.41;98600.45;220469;1276;24263;-71
2022/06/29 12:55:51;;;;;;;15.80;14.30;;;;;;;32.46;46.72;98593.50;220671;1276;24159;-70
2022/06/29 13:00:53;;;;;;;16.20;14.70;;;;;;;32.44;46.35;98579.88;220542;1276;22534;-70
2022/06/29 13:05:55;;;;;;;18.20;16.40;;;;;;;32.45;46.12;98575.95;220837;1275;22604;-71
2022/06/29 13:10:59;;;;;;;17.20;15.50;;;;;;;32.44;46.59;98579.80;220570;1276;22683;-71
2022/06/29 13:16:03;;;;;;;18.20;16.30;;;;;;;32.51;46.39;98578.07;220420;1276;23043;-71
2022/06/29 13:21:05;;;;;;;18.30;16.50;;;;;;;32.54;46.66;98570.92;220407;1276;24231;-70
2022/06/29 13:26:15;;;;;;;19.00;15.70;;;;;;;32.68;46.26;98573.30;219003;1276;24171;-73
2022/06/29 13:31:17;;;;;;;16.60;15.00;;;;;;;32.79;46.17;98574.80;220601;1276;22614;-71
2022/06/29 13:36:20;;;;;;;16.90;15.20;;;;;;;32.83;45.73;98563.66;220526;1276;22617;-70
2022/06/29 13:41:28;;;;;;;17.50;15.90;;;;;;;32.85;46.02;98564.94;220734;1276;22544;-71
2022/06/29 13:46:30;;;;;;;16.40;14.80;;;;;;;32.74;45.81;98567.75;220598;1276;22570;-71
2022/06/29 13:51:34;;;;;;;16.60;15.00;;;;;;;32.69;46.11;98565.58;220653;1276;22551;-71
2022/06/29 13:56:38;;;;;;;17.30;15.60;;;;;;;32.65;45.57;98571.11;220599;1277;22535;-71
2022/06/29 14:01:40;;;;;;;17.20;15.40;;;;;;;32.52;45.95;98570.28;220630;1275;25435;-70
2022/06/29 14:06:42;;;;;;;17.00;15.40;;;;;;;32.49;46.11;98571.80;220393;1276;22488;-72
2022/06/29 14:11:45;;;;;;;16.10;14.60;;;;;;;32.43;45.74;98563.77;220369;1276;24263;-71
2022/06/29 14:16:47;;;;;;;15.20;13.70;;;;;;;32.47;46.25;98552.30;220176;1276;22642;-71
2022/06/29 14:21:50;;;;;;;15.50;13.90;;;;;;;32.60;46.29;98548.17;220277;1276;25406;-71
2022/06/29 14:26:52;;;;;;;14.40;12.90;;;;;;;32.77;45.54;98529.91;220221;1276;25463;-72
2022/06/29 14:31:55;;;;;;;12.70;11.70;;;;;;;32.90;45.58;98523.55;220220;1276;24312;-72
2022/06/29 14:37:17;;;;;;;13.30;12.20;;;;;;;32.89;45.51;98527.54;220281;1276;23354;-72
2022/06/29 14:42:21;;;;;;;12.90;11.70;;;;;;;32.82;45.28;98518.13;220387;1276;22543;-71
2022/06/29 14:47:23;;;;;;;13.00;11.70;;;;;;;32.81;45.05;98504.31;220006;1278;22580;-72
2022/06/29 14:52:25;;;;;;;13.40;11.70;;;;;;;32.76;44.96;98502.02;220213;1276;26487;-71
2022/06/29 14:57:30;;;;;;;11.60;10.60;;;;;;;32.59;44.67;98486.73;220091;1276;22574;-72
2022/06/29 15:02:33;;;;;;;11.60;10.60;;;;;;;32.56;44.90;98483.04;219974;1276;26335;-71
2022/06/29 15:07:39;;;;;;;12.60;11.40;;;;;;;32.59;44.98;98477.16;220329;1276;24395;-72
2022/06/29 15:12:45;;;;;;;10.70;9.90;;;;;;;32.62;44.62;98470.04;220280;1276;24109;-71
2022/06/29 15:17:47;;;;;;;11.40;10.40;;;;;;;32.56;44.14;98462.98;220343;1276;22575;-72
2022/06/29 15:23:01;;;;;;;10.00;9.20;;;;;;;32.51;43.84;98450.41;220139;1276;22756;-72
2022/06/29 15:28:03;;;;;;;10.70;9.80;;;;;;;32.49;44.13;98438.61;220268;1276;26394;-71
2022/06/29 15:33:05;;;;;;;10.60;9.70;;;;;;;32.46;44.00;98432.41;220534;1275;24446;-74
2022/06/29 15:38:46;;;;;;;10.50;9.60;;;;;;;32.46;44.15;98433.55;220322;1277;23804;-71
2022/06/29 15:43:50;;;;;;;10.20;9.30;;;;;;;32.49;44.35;98428.60;220205;1276;24249;-71
2022/06/29 15:48:54;;;;;;;11.00;10.00;;;;;;;32.39;44.01;98437.02;220163;1276;22570;-73
2022/06/29 15:59:31;;;;;;;11.50;10.50;;;;;;;32.43;44.81;98479.34;220230;1277;22800;-72
2022/06/29 16:04:34;;;;;;;11.80;10.80;;;;;;;32.39;44.55;98487.69;220009;1276;24442;-71
2022/06/29 16:09:36;;;;;;;11.20;10.30;;;;;;;32.32;44.76;98491.73;219969;1277;22584;-70
2022/06/29 16:14:42;;;;;;;11.30;10.30;;;;;;;32.29;44.99;98491.42;219930;1276;22563;-71
2022/06/29 16:19:44;;;;;;;11.90;10.80;;;;;;;32.10;44.80;98453.10;220235;1276;24308;-72
2022/06/29 16:24:47;;;;;;;12.50;11.30;;;;;;;31.84;45.56;98438.36;220246;1276;22652;-72
2022/06/29 16:29:53;;;;;;;13.30;12.20;;;;;;;31.62;45.76;98431.85;220236;1275;25368;-71
2022/06/29 16:34:55;;;;;;;13.00;11.90;;;;;;;31.45;46.62;98442.05;220182;1276;23801;-72
2022/06/29 16:39:58;;;;;;;14.40;12.90;;;;;;;31.40;46.58;98443.15;220177;1276;25265;-72
2022/06/29 16:45:03;;;;;;;14.80;13.50;;;;;;;31.36;46.73;98437.23;220278;1276;22600;-72
2022/06/29 16:50:06;;;;;;;13.90;12.70;;;;;;;31.30;46.68;98438.58;220112;1277;25433;-72
2022/06/29 16:55:12;;;;;;;13.50;12.30;;;;;;;31.25;46.99;98458.64;220163;1277;22552;-72
2022/06/29 17:00:16;;;;;;;14.60;13.20;;;;;;;31.20;47.19;98480.27;220108;1276;22526;-71
2022/06/29 17:05:24;;;;;;;14.60;13.30;;;;;;;31.09;47.49;98473.45;220128;1277;24356;-72
2022/06/29 17:10:27;;;;;;;15.10;13.70;;;;;;;30.97;47.80;98479.04;220276;1276;22568;-71
2022/06/29 17:15:33;;;;;;;15.00;13.50;;;;;;;30.83;47.86;98492.06;220340;1276;22698;-72
2022/06/29 17:20:36;;;;;;;14.00;10.10;;;;;;;30.61;48.10;98533.05;220210;1276;25866;-72
2022/06/29 17:25:38;;;;;;;14.10;11.70;;;;;;;29.93;47.48;98532.86;220127;1276;23008;-71
2022/06/29 17:30:41;;;;;;;10.80;9.40;;;;;;;29.08;48.31;98536.76;220276;1275;25368;-73
2022/06/29 17:35:44;;;;;;;11.00;9.80;;;;;;;28.40;49.77;98524.05;220295;1276;22659;-72
2022/06/29 17:40:46;;;;;;;10.90;9.80;;;;;;;27.90;50.93;98513.34;220254;1276;22515;-71
2022/06/29 17:45:48;;;;;;;12.20;9.70;;;;;;;27.54;51.32;98511.55;220137;1276;23294;-72
2022/06/29 17:50:50;;;;;;;13.20;10.70;;;;;;;27.20;51.66;98502.90;220415;1276;22576;-73
2022/06/29 17:55:53;;;;;;;12.00;10.20;;;;;;;26.92;52.27;98478.59;220217;1278;22556;-72
2022/06/29 18:00:55;;;;;;;11.80;10.60;;;;;;;26.68;53.45;98471.20;220126;1278;22571;-71
2022/06/29 18:05:57;;;;;;;14.50;10.10;;;;;;;26.43;54.33;98470.13;220280;1276;24227;-72
2022/06/29 18:11:00;;;;;;;14.10;10.10;;;;;;;26.15;55.10;98450.52;220202;1277;22543;-72
2022/06/29 18:16:23;;;;;;;14.00;10.30;;;;;;;25.83;56.44;98451.53;220145;1278;25285;-71
2022/06/29 18:21:29;;;;;;;11.70;9.60;;;;;;;25.50;57.64;98424.94;220253;1276;22559;-71
2022/06/29 18:26:35;;;;;;;12.40;10.60;;;;;;;25.18;58.35;98409.81;220340;1278;22633;-71
2022/06/29 18:31:37;;;;;;;13.50;10.60;;;;;;;24.94;59.05;98402.58;220329;1277;22564;-71
2022/06/29 18:36:42;;;;;;;16.20;10.90;;;;;;;24.75;60.20;98393.05;220170;1276;25366;-71
2022/06/29 18:41:45;;;;;;;12.10;10.80;;;;;;;24.49;61.46;98373.09;220295;1277;22576;-71
2022/06/29 18:46:49;;;;;;;14.40;11.50;;;;;;;24.20;62.72;98351.20;220184;1276;25379;-71
2022/06/29 18:51:56;;;;;;;13.50;11.40;;;;;;;23.96;63.96;98371.48;220283;1277;22733;-75
2022/06/29 18:56:58;;;;;;;14.60;11.40;;;;;;;23.82;65.08;98377.05;220284;1278;22666;-74
2022/06/29 19:02:01;;;;;;;12.00;10.70;;;;;;;23.69;65.73;98381.63;220186;1278;26811;-72
2022/06/29 19:07:06;;;;;;;11.90;10.70;;;;;;;23.59;67.13;98381.05;220226;1278;24335;-72
2022/06/29 19:12:09;;;;;;;11.80;10.30;;;;;;;23.49;67.34;98383.91;220267;1278;24265;-71
2022/06/29 19:17:11;;;;;;;20.70;11.30;;;;;;;23.40;67.74;98376.30;219640;1278;22542;-71
2022/06/29 19:22:14;;;;;;;16.20;10.50;;;;;;;23.28;67.95;98378.19;220333;1278;24298;-71
2022/06/29 19:27:17;;;;;;;12.70;10.60;;;;;;;23.20;68.54;98403.44;220059;1275;25466;-72
2022/06/29 19:32:19;;;;;;;14.50;11.40;;;;;;;23.15;68.68;98406.06;220515;1280;22586;-71
2022/06/29 19:37:21;;;;;;;16.50;11.50;;;;;;;23.12;68.73;98424.64;220252;1278;22907;-72
2022/06/29 19:42:24;;;;;;;15.80;11.00;;;;;;;23.13;68.61;98445.86;219965;1277;22704;-71
2022/06/29 19:47:29;;;;;;;14.80;10.60;;;;;;;23.13;68.85;98436.58;219868;1278;26518;-71
2022/06/29 19:52:32;;;;;;;17.40;12.80;;;;;;;23.14;69.15;98442.37;219986;1277;22609;-71
2022/06/29 19:57:35;;;;;;;16.00;13.20;;;;;;;23.08;69.11;98445.73;220015;1278;22762;-71
2022/06/29 20:02:40;;;;;;;18.40;13.80;;;;;;;22.99;69.52;98441.61;220101;1278;25274;-72
2022/06/29 20:07:43;;;;;;;15.70;11.70;;;;;;;22.88;69.61;98440.27;220067;1275;24120;-72
2022/06/29 20:12:54;;;;;;;20.10;11.80;;;;;;;22.73;70.10;98447.20;219945;1278;25260;-71
2022/06/29 20:18:02;;;;;;;14.40;11.80;;;;;;;22.62;70.56;98446.70;220008;1278;22560;-71
2022/06/29 20:23:23;;;;;;;20.50;12.80;;;;;;;22.50;71.15;98455.81;220116;1278;22560;-72
2022/06/29 20:28:25;;;;;;;15.30;13.10;;;;;;;22.39;71.66;98453.42;220198;1278;22849;-71
2022/06/29 20:33:29;;;;;;;17.60;14.20;;;;;;;22.27;72.21;98457.73;220297;1275;26377;-70
2022/06/29 20:38:31;;;;;;;16.30;13.90;;;;;;;22.20;72.67;98463.27;220010;1277;25312;-72
2022/06/29 20:48:57;;;;;;;19.10;13.70;;;;;;;22.06;73.70;98458.54;220103;1277;24159;-71
2022/06/29 20:53:59;;;;;;;18.60;15.10;;;;;;;22.02;74.22;98467.70;220132;1276;25261;-71
2022/06/29 20:59:02;;;;;;;18.40;15.30;;;;;;;21.97;74.26;98467.39;220187;1276;23455;-72
2022/06/29 21:04:04;;;;;;;15.70;14.10;;;;;;;21.92;74.51;98464.77;220348;1277;25539;-71
2022/06/29 21:09:09;;;;;;;15.90;13.60;;;;;;;21.86;74.73;98456.13;220252;1277;24134;-72
2022/06/29 21:14:17;;;;;;;16.50;14.50;;;;;;;21.81;75.29;98452.09;220207;1276;22628;-71
2022/06/29 21:19:23;;;;;;;19.60;15.40;;;;;;;21.77;75.40;98448.45;220064;1277;22566;-71
2022/06/29 21:24:26;;;;;;;17.20;15.20;;;;;;;21.73;75.93;98444.83;219995;1278;22694;-71
2022/06/29 21:29:31;;;;;;;21.10;16.20;;;;;;;21.71;76.26;98441.14;219999;1274;23332;-71
2022/06/29 21:34:33;;;;;;;16.40;14.70;;;;;;;21.68;76.45;98440.58;220457;1275;22558;-71
2022/06/29 21:39:36;;;;;;;18.30;16.30;;;;;;;21.64;76.78;98434.59;220435;1274;25897;-71
2022/06/29 21:44:39;;;;;;;18.40;16.40;;;;;;;21.60;77.23;98434.40;220366;1276;24414;-71
2022/06/29 21:55:30;;;;;;;21.50;19.20;;;;;;;21.54;78.15;98428.02;220266;1277;25359;-70
2022/06/29 22:00:35;;;;;;;27.30;22.10;;;;;;;21.54;78.61;98422.87;219729;1276;25467;-70
2022/06/29 22:05:41;;;;;;;22.20;19.80;;;;;;;21.52;78.85;98423.06;220002;1276;26374;-71
2022/06/29 22:10:43;;;;;;;24.20;21.40;;;;;;;21.51;79.35;98418.61;220202;1276;23856;-72
2022/06/29 22:15:45;;;;;;;22.70;20.20;;;;;;;21.56;80.43;98413.48;220120;1276;25091;-71
2022/06/29 22:20:54;;;;;;;23.50;21.00;;;;;;;21.68;81.36;98404.67;220041;1276;22749;-72
2022/06/29 22:25:58;;;;;;;24.40;20.90;;;;;;;21.79;81.61;98402.38;220032;1276;24307;-70
2022/06/29 22:31:57;;;;;;;22.80;20.50;;;;;;;21.86;81.66;98405.57;220284;1275;25258;-71
2022/06/29 22:37:02;;;;;;;21.50;19.50;;;;;;;21.85;81.66;98408.13;220094;1277;24310;-71
2022/06/29 22:42:08;;;;;;;24.40;21.90;;;;;;;21.84;81.82;98407.27;220012;1277;24276;-72
2022/06/29 22:47:11;;;;;;;24.50;21.90;;;;;;;21.85;81.83;98404.93;219659;1277;22703;-71
2022/06/29 22:52:17;;;;;;;25.30;22.60;;;;;;;21.91;81.98;98407.02;219905;1277;22610;-71
2022/06/29 22:57:42;;;;;;;23.00;20.50;;;;;;;21.90;81.65;98412.85;220155;1276;22769;-72
2022/06/29 23:02:59;;;;;;;24.50;22.00;;;;;;;21.84;81.67;98415.98;220125;1277;22562;-71
2022/06/29 23:08:05;;;;;;;24.00;21.50;;;;;;;21.80;81.61;98422.34;220109;1276;24438;-71
2022/06/29 23:13:08;;;;;;;22.80;20.60;;;;;;;21.78;82.28;98411.02;219654;1276;22658;-70
2022/06/29 23:18:10;;;;;;;27.40;24.20;;;;;;;21.77;82.53;98415.83;220113;1277;22580;-71
2022/06/29 23:23:13;;;;;;;26.70;24.10;;;;;;;21.73;82.53;98416.70;220111;1276;22717;-72
2022/06/29 23:28:16;;;;;;;26.80;24.00;;;;;;;21.68;82.76;98407.31;220243;1276;22719;-71
2022/06/29 23:33:18;;;;;;;26.40;23.80;;;;;;;21.67;83.00;98400.13;220201;1276;22775;-71
2022/06/29 23:38:20;;;;;;;27.10;24.30;;;;;;;21.65;83.19;98401.36;220083;1276;22602;-71
2022/06/29 23:43:26;;;;;;;26.60;23.80;;;;;;;21.63;83.22;98400.23;220067;1276;22541;-71
2022/06/29 23:48:28;;;;;;;28.10;25.30;;;;;;;21.58;83.35;98394.35;220112;1276;22601;-71
2022/06/29 23:53:31;;;;;;;26.90;24.20;;;;;;;21.54;83.73;98388.46;220070;1276;22603;-71
2022/06/29 23:58:33;;;;;;;27.00;24.30;;;;;;;21.52;83.82;98385.08;219959;1276;26200;-71
